Time;durP1;ratioP1;P1;durP2;ratioP2;P2;SDS_P1;SDS_P2;PMS_P1;PMS_P2;Temp;Humidity;BMP_temperature;BMP_pressure;BME280_temperature;BME280_humidity;BME280_pressure;Samples;Min_cycle;Max_cycle;Signal;HPM_P1;HPM_P2
2022/02/25 00:01:02;;;;;;;13.27;2.43;;;3.50;99.90;;;;;;5038674;28;20071;-79
2022/02/25 00:03:31;;;;;;;14.13;2.93;;;3.50;99.90;;;;;;5085760;28;20076;-79
2022/02/25 00:05:59;;;;;;;14.50;3.43;;;3.50;99.90;;;;;;5058343;28;20052;-79
2022/02/25 00:08:25;;;;;;;13.53;2.97;;;3.60;99.90;;;;;;5043841;28;20186;-79
2022/02/25 00:10:51;;;;;;;11.20;2.70;;;3.60;99.90;;;;;;5093103;28;20135;-79
2022/02/25 00:13:17;;;;;;;11.30;3.13;;;3.60;99.90;;;;;;5105984;27;20267;-79
2022/02/25 00:15:43;;;;;;;13.20;2.90;;;3.60;99.90;;;;;;5048336;28;20036;-79
2022/02/25 00:18:09;;;;;;;15.80;2.83;;;3.60;99.90;;;;;;5060260;28;20373;-79
2022/02/25 00:20:35;;;;;;;14.23;2.67;;;3.70;99.90;;;;;;5078238;28;20768;-79
2022/02/25 00:23:01;;;;;;;10.73;2.83;;;3.70;99.90;;;;;;5073445;28;20495;-78
2022/02/25 00:25:31;;;;;;;12.10;2.90;;;3.70;99.90;;;;;;5068990;28;20047;-79
2022/02/25 00:27:57;;;;;;;12.40;2.40;;;3.80;99.90;;;;;;5091858;28;20044;-79
2022/02/25 00:30:23;;;;;;;14.63;2.63;;;3.80;99.90;;;;;;5070809;28;20084;-79
2022/02/25 00:32:49;;;;;;;10.97;2.30;;;3.80;99.90;;;;;;5086492;28;20709;-78
2022/02/25 00:35:15;;;;;;;9.60;2.47;;;3.90;99.90;;;;;;5086037;28;20119;-79
2022/02/25 00:37:40;;;;;;;13.67;2.50;;;3.90;99.90;;;;;;5077265;28;20401;-79
2022/02/25 00:40:09;;;;;;;10.03;2.07;;;4.00;99.90;;;;;;5098656;28;20454;-79
2022/02/25 00:42:35;;;;;;;8.97;2.30;;;4.00;99.90;;;;;;5105639;28;20044;-79
2022/02/25 00:45:01;;;;;;;13.30;2.40;;;4.10;99.90;;;;;;5061617;28;20431;-79
2022/02/25 00:47:26;;;;;;;13.20;2.40;;;4.10;99.90;;;;;;5058875;28;20179;-79
2022/02/25 00:49:52;;;;;;;16.13;3.20;;;4.10;99.90;;;;;;5068139;28;20048;-78
2022/02/25 00:52:18;;;;;;;13.67;2.70;;;4.10;99.90;;;;;;5073027;28;20094;-78
2022/02/25 00:54:44;;;;;;;13.23;2.40;;;4.20;99.90;;;;;;5086597;28;20134;-79
2022/02/25 00:57:10;;;;;;;9.27;2.33;;;4.20;99.90;;;;;;5078760;28;20724;-79
2022/02/25 00:59:36;;;;;;;13.53;2.37;;;4.20;99.90;;;;;;5074197;28;20218;-80
2022/02/25 01:02:02;;;;;;;12.60;2.33;;;4.30;99.90;;;;;;5092714;28;20281;-79
2022/02/25 01:04:28;;;;;;;10.70;2.47;;;4.30;99.90;;;;;;5081835;28;20387;-80
2022/02/25 01:06:55;;;;;;;9.57;2.10;;;4.30;99.90;;;;;;5059755;28;20054;-79
2022/02/25 01:09:21;;;;;;;14.93;2.90;;;4.40;99.90;;;;;;5075444;28;20150;-80
2022/02/25 01:11:47;;;;;;;13.90;2.17;;;4.40;99.90;;;;;;5066971;28;20132;-79
2022/02/25 01:14:13;;;;;;;10.10;1.97;;;4.40;99.90;;;;;;5084825;28;20443;-80
2022/02/25 01:16:39;;;;;;;11.53;2.50;;;4.50;99.90;;;;;;5088631;28;20036;-80
2022/02/25 01:19:05;;;;;;;8.10;2.20;;;4.50;99.90;;;;;;5090079;28;20435;-79
2022/02/25 01:21:31;;;;;;;10.27;2.10;;;4.40;99.90;;;;;;5054850;28;20071;-80
2022/02/25 01:23:59;;;;;;;10.40;2.40;;;4.50;99.90;;;;;;5105154;28;20047;-79
2022/02/25 01:26:26;;;;;;;11.30;2.50;;;4.50;99.90;;;;;;5088549;28;20509;-79
2022/02/25 01:28:52;;;;;;;12.23;2.80;;;4.50;99.90;;;;;;5098623;28;20059;-79
2022/02/25 01:31:19;;;;;;;11.67;2.30;;;4.50;99.90;;;;;;5065070;28;20168;-79
2022/02/25 01:33:46;;;;;;;16.07;2.63;;;4.50;99.90;;;;;;5068119;28;20098;-80
2022/02/25 01:36:12;;;;;;;11.90;2.27;;;4.50;99.90;;;;;;5056873;28;20052;-80
2022/02/25 01:38:38;;;;;;;11.57;2.17;;;4.50;99.90;;;;;;5068416;28;20487;-79
2022/02/25 01:41:04;;;;;;;13.20;2.10;;;4.60;99.90;;;;;;5062270;28;20117;-79
2022/02/25 01:43:30;;;;;;;11.80;2.23;;;4.60;99.90;;;;;;5051586;28;20085;-80
2022/02/25 01:45:56;;;;;;;10.87;1.93;;;4.60;99.90;;;;;;5067847;28;20040;-80
2022/02/25 01:48:22;;;;;;;14.13;3.00;;;4.60;99.90;;;;;;5050838;28;20540;-79
2022/02/25 01:50:48;;;;;;;15.43;2.77;;;4.60;99.90;;;;;;5063499;28;20222;-79
2022/02/25 01:53:14;;;;;;;11.27;2.40;;;4.60;99.90;;;;;;5068753;28;20067;-79
2022/02/25 01:55:42;;;;;;;8.80;1.90;;;4.60;99.90;;;;;;5062007;28;20503;-78
2022/02/25 01:58:08;;;;;;;8.90;1.80;;;4.60;99.90;;;;;;5082604;28;20462;-80
2022/02/25 02:00:35;;;;;;;9.63;1.90;;;4.60;99.90;;;;;;5072882;28;20236;-79
2022/02/25 02:03:03;;;;;;;11.37;2.07;;;4.70;99.90;;;;;;5068045;28;20032;-79
2022/02/25 02:05:28;;;;;;;11.83;2.27;;;4.70;99.90;;;;;;5074723;28;20044;-79
2022/02/25 02:07:54;;;;;;;8.67;2.43;;;4.70;99.90;;;;;;5088424;28;20051;-79
2022/02/25 02:10:20;;;;;;;12.00;2.13;;;4.70;99.90;;;;;;5059038;28;20522;-79
2022/02/25 02:12:46;;;;;;;19.27;2.90;;;4.70;99.90;;;;;;5074586;28;20055;-79
2022/02/25 02:15:12;;;;;;;14.73;4.00;;;4.60;99.90;;;;;;5092373;28;20533;-79
2022/02/25 02:17:38;;;;;;;7.70;2.07;;;4.60;99.90;;;;;;5094532;28;20036;-79
2022/02/25 02:20:05;;;;;;;10.83;1.97;;;4.50;99.90;;;;;;5099607;28;20051;-78
2022/02/25 02:22:33;;;;;;;17.50;3.00;;;4.40;99.90;;;;;;5053881;28;20032;-78
2022/02/25 02:24:59;;;;;;;11.43;2.23;;;4.30;99.90;;;;;;5079210;28;20051;-78
2022/02/25 02:28:17;;;;;;;13.83;2.43;;;4.30;99.90;;;;;;5108430;28;20413;-79
2022/02/25 02:30:15;;;;;;;12.53;2.53;;;4.20;99.90;;;;;;5099832;28;20361;-78
2022/02/25 02:32:41;;;;;;;11.47;2.53;;;4.20;99.90;;;;;;5087793;28;20383;-79
2022/02/25 02:35:08;;;;;;;11.23;2.53;;;4.10;99.90;;;;;;5104833;27;20047;-79
2022/02/25 02:37:34;;;;;;;11.10;2.23;;;4.00;99.90;;;;;;5085122;28;20042;-79
2022/02/25 02:40:00;;;;;;;13.63;2.47;;;4.00;99.90;;;;;;5085591;28;20148;-79
2022/02/25 02:42:26;;;;;;;17.07;3.03;;;4.00;99.90;;;;;;5072700;28;20040;-79
2022/02/25 02:44:52;;;;;;;9.53;2.70;;;3.90;99.90;;;;;;5090314;27;20067;-78
2022/02/25 02:47:18;;;;;;;12.87;2.90;;;3.90;99.90;;;;;;5070314;28;20415;-80
2022/02/25 02:49:44;;;;;;;12.53;2.57;;;3.80;99.90;;;;;;5080674;28;20505;-80
2022/02/25 02:52:09;;;;;;;15.30;3.23;;;3.80;99.90;;;;;;5075381;28;20278;-80
2022/02/25 02:54:35;;;;;;;14.07;2.80;;;3.80;99.90;;;;;;5088364;28;20040;-79
2022/02/25 02:57:01;;;;;;;16.07;3.30;;;3.80;99.90;;;;;;5071487;28;20036;-79
2022/02/25 02:59:30;;;;;;;16.67;2.80;;;3.80;99.90;;;;;;5105427;28;20075;-80
2022/02/25 03:01:55;;;;;;;10.10;2.30;;;3.80;99.90;;;;;;5057848;28;20497;-79
2022/02/25 03:04:21;;;;;;;13.20;3.20;;;3.80;99.90;;;;;;5117430;27;20135;-78
2022/02/25 03:06:47;;;;;;;14.13;3.00;;;3.80;99.90;;;;;;5085695;28;20082;-78
2022/02/25 03:09:13;;;;;;;14.27;2.53;;;3.80;99.90;;;;;;5069162;28;20051;-78
2022/02/25 03:11:39;;;;;;;15.57;3.07;;;3.80;99.90;;;;;;5083102;28;20040;-78
2022/02/25 03:14:05;;;;;;;18.50;3.47;;;3.80;99.90;;;;;;5123810;27;20490;-79
2022/02/25 03:16:30;;;;;;;15.40;3.50;;;3.80;99.90;;;;;;5071218;28;20059;-79
2022/02/25 03:18:56;;;;;;;13.23;3.33;;;3.80;99.90;;;;;;5055327;28;20052;-78
2022/02/25 03:21:22;;;;;;;15.83;2.83;;;3.80;99.90;;;;;;5106079;28;20083;-78
2022/02/25 03:23:48;;;;;;;11.80;3.23;;;3.80;99.90;;;;;;5071193;28;20072;-80
2022/02/25 03:26:14;;;;;;;14.23;3.07;;;3.80;99.90;;;;;;5088013;28;20048;-78
2022/02/25 03:28:39;;;;;;;15.97;3.10;;;3.80;99.90;;;;;;5099684;27;20124;-78
2022/02/25 03:31:05;;;;;;;17.77;3.40;;;3.80;99.90;;;;;;5105724;28;20090;-78
2022/02/25 03:33:31;;;;;;;16.60;3.67;;;3.80;99.90;;;;;;5071201;28;20197;-78
2022/02/25 03:35:57;;;;;;;18.63;3.63;;;3.80;99.90;;;;;;5088007;28;20051;-78
2022/02/25 03:38:23;;;;;;;17.33;3.83;;;3.80;99.90;;;;;;5087395;28;20048;-77
2022/02/25 03:40:50;;;;;;;15.47;3.77;;;3.70;99.90;;;;;;5107185;27;20040;-78
2022/02/25 03:43:16;;;;;;;14.23;3.33;;;3.70;99.90;;;;;;5067236;28;20040;-77
2022/02/25 03:45:42;;;;;;;16.90;3.40;;;3.60;99.90;;;;;;5069807;28;20051;-78
2022/02/25 03:48:07;;;;;;;20.43;3.80;;;3.60;99.90;;;;;;5080145;28;20044;-77
2022/02/25 03:50:33;;;;;;;13.67;2.80;;;3.50;99.90;;;;;;5070849;28;20048;-78
2022/02/25 03:53:00;;;;;;;14.67;3.00;;;3.40;99.90;;;;;;5053643;28;20105;-77
2022/02/25 03:55:26;;;;;;;15.80;3.40;;;3.30;99.90;;;;;;5061535;28;20123;-77
2022/02/25 03:57:52;;;;;;;18.80;3.60;;;3.20;99.90;;;;;;5050314;28;20095;-77
2022/02/25 04:00:18;;;;;;;17.87;3.97;;;3.10;99.90;;;;;;5057215;28;20048;-80
2022/02/25 04:02:44;;;;;;;13.63;2.93;;;3.10;99.90;;;;;;5087043;28;20051;-79
2022/02/25 04:05:13;;;;;;;15.13;2.97;;;3.00;99.90;;;;;;5087782;28;20414;-79
2022/02/25 04:07:41;;;;;;;18.43;3.53;;;3.00;99.90;;;;;;5070031;28;20044;-79
2022/02/25 04:10:07;;;;;;;15.90;3.40;;;3.00;99.90;;;;;;5083231;28;20141;-80
2022/02/25 04:12:33;;;;;;;17.27;3.60;;;2.90;99.90;;;;;;5105981;28;20105;-80
2022/02/25 04:14:59;;;;;;;14.13;2.90;;;2.90;99.90;;;;;;5070073;28;20093;-79
2022/02/25 04:17:25;;;;;;;16.07;3.57;;;2.90;99.90;;;;;;5070590;28;20056;-79
2022/02/25 04:19:50;;;;;;;14.70;3.23;;;3.00;99.90;;;;;;5086937;28;20480;-79
2022/02/25 04:22:16;;;;;;;15.70;3.43;;;2.80;99.90;;;;;;5086852;28;20036;-79
2022/02/25 04:24:42;;;;;;;15.73;3.40;;;2.80;99.90;;;;;;5086564;28;20138;-80
2022/02/25 04:27:09;;;;;;;16.00;3.73;;;2.80;99.90;;;;;;5068583;28;20052;-79
2022/02/25 04:29:34;;;;;;;14.00;3.33;;;2.80;99.90;;;;;;5049871;28;20458;-79
2022/02/25 04:32:00;;;;;;;13.90;3.00;;;2.80;99.90;;;;;;5075563;28;20139;-79
2022/02/25 04:34:27;;;;;;;16.67;3.53;;;2.80;99.90;;;;;;5070032;28;20056;-79
2022/02/25 04:36:52;;;;;;;17.20;3.70;;;2.80;99.90;;;;;;5069657;28;20510;-80
2022/02/25 04:39:18;;;;;;;16.87;3.17;;;2.80;99.90;;;;;;5065429;28;20074;-80
2022/02/25 04:41:44;;;;;;;15.27;2.50;;;2.80;99.90;;;;;;5094735;28;20176;-79
2022/02/25 04:44:10;;;;;;;17.40;3.93;;;2.80;99.90;;;;;;5068321;28;20086;-79
2022/02/25 04:46:38;;;;;;;16.70;3.57;;;2.80;99.90;;;;;;5050545;28;20045;-79
2022/02/25 04:49:04;;;;;;;13.67;2.90;;;2.70;99.90;;;;;;5068223;28;20053;-80
2022/02/25 04:51:30;;;;;;;13.50;3.20;;;2.70;99.90;;;;;;5054332;28;20491;-79
2022/02/25 04:53:56;;;;;;;15.67;3.33;;;2.80;99.90;;;;;;5070348;28;20146;-79
2022/02/25 04:56:23;;;;;;;16.47;3.03;;;2.80;99.90;;;;;;5069353;28;20367;-80
2022/02/25 04:58:49;;;;;;;15.03;3.00;;;2.80;99.90;;;;;;5086828;28;20044;-79
2022/02/25 05:01:15;;;;;;;18.93;3.37;;;2.90;99.90;;;;;;5117765;27;20494;-80
2022/02/25 05:03:41;;;;;;;18.27;3.60;;;2.90;99.90;;;;;;5053120;28;20068;-80
2022/02/25 05:06:07;;;;;;;15.93;2.90;;;3.00;99.90;;;;;;5086939;28;20040;-79
2022/02/25 05:08:33;;;;;;;21.07;4.27;;;3.10;99.90;;;;;;5086749;28;20044;-79
2022/02/25 05:10:58;;;;;;;13.27;3.17;;;3.10;99.90;;;;;;5068602;28;20051;-80
2022/02/25 05:13:24;;;;;;;17.17;3.20;;;3.20;99.90;;;;;;5052976;28;20126;-80
2022/02/25 05:21:19;;;;;;;14.87;3.10;;;3.20;99.90;;;;;;5072455;28;20270;-80
2022/02/25 05:23:45;;;;;;;10.80;2.80;;;3.20;99.90;;;;;;5068376;28;20491;-79
2022/02/25 05:26:10;;;;;;;15.63;3.73;;;3.20;99.90;;;;;;5069543;28;20134;-79
2022/02/25 05:28:39;;;;;;;15.00;3.30;;;3.30;99.90;;;;;;5053229;28;20044;-80
2022/02/25 05:31:08;;;;;;;14.27;3.50;;;3.20;99.90;;;;;;5069635;28;20062;-77
2022/02/25 05:33:34;;;;;;;19.43;3.83;;;3.20;99.90;;;;;;5103640;28;20040;-80
2022/02/25 05:36:00;;;;;;;16.00;3.33;;;3.30;99.90;;;;;;5119817;28;20071;-79
2022/02/25 05:38:26;;;;;;;15.00;4.07;;;3.30;99.90;;;;;;5121145;27;20044;-79
2022/02/25 05:40:52;;;;;;;18.63;3.27;;;3.40;99.90;;;;;;5075062;28;20063;-79
2022/02/25 05:43:18;;;;;;;14.87;2.93;;;3.40;99.90;;;;;;5073349;28;20048;-79
2022/02/25 05:45:44;;;;;;;15.00;3.27;;;3.50;99.90;;;;;;5089659;28;20044;-79
2022/02/25 05:48:09;;;;;;;13.63;3.00;;;3.50;99.90;;;;;;5090510;28;20543;-78
2022/02/25 05:50:36;;;;;;;18.70;3.60;;;3.50;99.90;;;;;;5073443;28;20040;-79
2022/02/25 05:53:02;;;;;;;16.53;3.67;;;3.50;99.90;;;;;;5088335;28;20518;-79
2022/02/25 05:55:33;;;;;;;16.03;3.20;;;3.50;99.90;;;;;;5072161;28;20081;-79
2022/02/25 05:57:59;;;;;;;14.63;3.13;;;3.60;99.90;;;;;;5051442;28;20048;-78
2022/02/25 06:00:25;;;;;;;20.77;3.77;;;3.60;99.90;;;;;;5069803;28;20130;-80
2022/02/25 06:02:52;;;;;;;16.37;3.43;;;3.60;99.90;;;;;;5067368;28;20171;-79
2022/02/25 06:05:19;;;;;;;17.23;3.60;;;3.60;99.90;;;;;;5107019;28;20453;-79
2022/02/25 06:07:45;;;;;;;14.97;3.37;;;3.60;99.90;;;;;;5072035;28;20079;-80
2022/02/25 06:10:12;;;;;;;18.17;3.33;;;3.70;99.90;;;;;;5051387;28;20044;-79
2022/02/25 06:12:39;;;;;;;15.40;3.07;;;3.70;99.90;;;;;;5075326;28;20041;-79
2022/02/25 06:15:06;;;;;;;17.50;3.43;;;3.80;99.90;;;;;;5072343;28;20055;-79
2022/02/25 06:17:32;;;;;;;10.67;2.70;;;3.80;99.90;;;;;;5056738;28;20063;-81
2022/02/25 06:19:58;;;;;;;14.53;3.17;;;3.90;99.90;;;;;;5072823;28;20055;-79
2022/02/25 06:22:24;;;;;;;15.33;3.70;;;3.90;99.90;;;;;;5073587;28;20055;-80
2022/02/25 06:24:50;;;;;;;15.03;2.97;;;3.90;99.90;;;;;;5072859;28;20044;-80
2022/02/25 06:27:15;;;;;;;15.57;2.77;;;4.00;99.90;;;;;;5089981;28;20052;-79
2022/02/25 06:29:47;;;;;;;14.23;3.23;;;4.00;99.90;;;;;;5062920;28;20051;-78
2022/02/25 06:32:13;;;;;;;15.03;3.07;;;3.90;99.90;;;;;;5082922;28;20542;-79
2022/02/25 06:34:39;;;;;;;14.23;2.63;;;4.10;99.90;;;;;;5040790;28;20037;-79
2022/02/25 06:37:05;;;;;;;14.83;3.67;;;4.10;99.90;;;;;;5070312;28;20040;-79
2022/02/25 06:39:31;;;;;;;16.40;3.90;;;4.10;99.90;;;;;;5107975;27;20094;-79
2022/02/25 06:41:56;;;;;;;19.97;4.50;;;4.10;99.90;;;;;;5079578;28;20048;-79
2022/02/25 06:44:22;;;;;;;19.43;3.67;;;4.10;99.90;;;;;;5050135;28;20474;-78
2022/02/25 06:46:48;;;;;;;22.90;5.33;;;4.10;99.90;;;;;;5076986;28;20040;-79
2022/02/25 06:49:14;;;;;;;17.90;4.33;;;4.10;99.90;;;;;;5086975;28;20074;-79
2022/02/25 06:51:40;;;;;;;17.37;3.43;;;4.10;99.90;;;;;;5068307;28;20048;-79
2022/02/25 06:54:06;;;;;;;22.80;4.30;;;4.00;99.90;;;;;;5081674;28;20117;-79
2022/02/25 06:56:32;;;;;;;18.30;4.07;;;4.00;99.90;;;;;;5075812;28;20037;-78
2022/02/25 06:58:58;;;;;;;16.50;3.30;;;4.00;99.90;;;;;;5043831;28;20046;-79
2022/02/25 07:01:24;;;;;;;19.43;4.43;;;4.00;99.90;;;;;;5065010;28;20060;-78
2022/02/25 07:03:50;;;;;;;21.07;4.60;;;4.00;99.90;;;;;;5042194;28;20445;-77
2022/02/25 07:06:23;;;;;;;19.23;4.57;;;4.00;99.90;;;;;;5041000;28;20074;-78
2022/02/25 07:08:53;;;;;;;14.87;3.93;;;4.10;99.90;;;;;;5043668;28;20040;-77
2022/02/25 07:11:20;;;;;;;15.10;3.57;;;4.20;99.90;;;;;;5062891;28;20044;-77
2022/02/25 07:13:47;;;;;;;19.27;3.73;;;4.20;99.90;;;;;;5105024;27;20094;-78
2022/02/25 07:16:13;;;;;;;15.40;3.90;;;4.30;99.90;;;;;;5076546;28;20040;-77
2022/02/25 07:18:38;;;;;;;18.97;3.70;;;4.20;99.90;;;;;;5091117;28;20038;-78
2022/02/25 07:21:04;;;;;;;17.93;3.80;;;4.20;99.90;;;;;;5050986;28;20071;-78
2022/02/25 07:23:30;;;;;;;17.40;3.77;;;4.20;99.90;;;;;;5046656;28;20048;-78
2022/02/25 07:25:56;;;;;;;19.63;4.40;;;4.20;99.90;;;;;;5083498;28;20050;-78
2022/02/25 07:28:22;;;;;;;23.57;5.20;;;4.30;99.90;;;;;;5073992;28;20040;-77
2022/02/25 07:30:48;;;;;;;18.77;4.10;;;4.30;99.90;;;;;;5068399;28;20089;-77
2022/02/25 07:33:14;;;;;;;15.13;3.93;;;4.30;99.90;;;;;;5048376;28;20048;-78
2022/02/25 07:35:39;;;;;;;19.27;4.20;;;4.30;99.90;;;;;;5052529;28;20526;-78
2022/02/25 07:38:06;;;;;;;18.83;4.90;;;4.30;99.90;;;;;;5096978;27;20048;-78
2022/02/25 07:40:31;;;;;;;18.37;4.13;;;4.30;99.90;;;;;;5050239;28;20491;-77
2022/02/25 07:42:58;;;;;;;18.00;3.70;;;4.30;99.90;;;;;;5066188;28;20032;-77
2022/02/25 07:45:25;;;;;;;19.83;3.60;;;4.30;99.90;;;;;;5060554;28;20064;-77
2022/02/25 07:47:51;;;;;;;15.57;3.83;;;4.40;99.90;;;;;;5064353;28;20044;-78
2022/02/25 07:50:17;;;;;;;18.73;3.80;;;4.40;99.90;;;;;;5087707;28;20043;-78
2022/02/25 07:52:43;;;;;;;21.20;4.00;;;4.40;99.90;;;;;;5064808;28;20049;-79
2022/02/25 07:55:10;;;;;;;15.30;3.33;;;4.50;99.90;;;;;;5056975;28;20123;-79
2022/02/25 07:57:35;;;;;;;17.20;3.67;;;4.60;99.90;;;;;;5055949;28;20502;-79
2022/02/25 08:00:05;;;;;;;22.53;3.60;;;4.60;99.90;;;;;;5071489;28;20044;-79
2022/02/25 08:02:31;;;;;;;17.83;3.47;;;4.70;99.90;;;;;;5091814;27;20536;-78
2022/02/25 08:04:56;;;;;;;19.13;3.63;;;4.80;99.90;;;;;;5071176;28;20040;-77
2022/02/25 08:07:22;;;;;;;24.43;5.27;;;4.80;99.90;;;;;;5044343;28;20044;-77
2022/02/25 08:09:49;;;;;;;23.00;4.30;;;4.70;99.90;;;;;;5058745;28;20032;-77
2022/02/25 08:12:15;;;;;;;16.83;4.13;;;4.70;99.90;;;;;;5091040;28;20049;-78
2022/02/25 08:14:41;;;;;;;22.40;3.83;;;4.60;99.90;;;;;;5058315;28;20086;-77
2022/02/25 08:17:07;;;;;;;15.43;3.27;;;4.70;99.90;;;;;;5093577;27;20124;-77
2022/02/25 08:19:33;;;;;;;16.88;4.07;;;4.80;99.90;;;;;;5052065;28;20364;-78
2022/02/25 08:21:59;;;;;;;19.33;3.67;;;4.90;99.90;;;;;;5114768;27;20033;-79
2022/02/25 08:24:25;;;;;;;15.60;3.67;;;5.00;99.90;;;;;;5080238;28;20060;-79
2022/02/25 08:26:51;;;;;;;17.90;4.05;;;5.20;99.90;;;;;;5098747;27;20615;-78
2022/02/25 08:29:17;;;;;;;17.27;3.58;;;5.40;99.90;;;;;;5080057;28;20154;-79
2022/02/25 08:31:45;;;;;;;19.85;3.42;;;5.60;99.90;;;;;;5070096;28;20145;-79
2022/02/25 08:34:11;;;;;;;17.38;2.70;;;5.60;99.90;;;;;;5058931;28;20506;-78
2022/02/25 08:36:37;;;;;;;17.77;3.05;;;5.60;99.90;;;;;;5097068;28;20593;-80
2022/02/25 08:39:06;;;;;;;13.82;2.78;;;5.50;99.90;;;;;;5087528;28;20048;-78
2022/02/25 08:41:32;;;;;;;12.88;2.40;;;5.40;99.90;;;;;;5096395;27;20637;-80
2022/02/25 08:44:01;;;;;;;14.48;3.10;;;5.40;99.90;;;;;;5116326;27;20123;-80
2022/02/25 08:46:29;;;;;;;16.60;2.78;;;5.30;99.90;;;;;;5063908;28;20055;-80
2022/02/25 08:48:56;;;;;;;12.93;2.42;;;5.40;99.90;;;;;;5051525;28;20129;-79
2022/02/25 08:51:22;;;;;;;14.38;3.17;;;5.50;99.90;;;;;;5060094;28;20044;-80
2022/02/25 08:53:48;;;;;;;12.73;2.70;;;5.70;99.90;;;;;;5053661;28;20087;-80
2022/02/25 08:56:13;;;;;;;15.18;3.17;;;5.80;99.90;;;;;;5074595;28;20058;-80
2022/02/25 08:58:40;;;;;;;15.05;2.83;;;6.00;99.90;;;;;;5101077;27;20079;-78
2022/02/25 09:01:09;;;;;;;15.27;3.08;;;6.20;99.90;;;;;;5069804;28;20049;-80
2022/02/25 09:03:35;;;;;;;17.70;2.58;;;6.40;99.90;;;;;;5067057;28;20451;-80
2022/02/25 09:06:02;;;;;;;15.02;2.65;;;6.50;99.90;;;;;;5066869;28;20398;-78
2022/02/25 09:08:30;;;;;;;12.55;2.50;;;6.60;99.90;;;;;;5064491;28;20102;-80
2022/02/25 09:10:56;;;;;;;12.55;2.95;;;6.50;99.90;;;;;;5079801;28;20082;-80
2022/02/25 09:13:25;;;;;;;15.18;3.22;;;6.50;99.90;;;;;;5070263;28;20075;-81
2022/02/25 09:15:51;;;;;;;16.27;3.00;;;6.50;99.90;;;;;;5070888;28;20043;-78
2022/02/25 09:18:16;;;;;;;22.73;3.95;;;6.50;99.90;;;;;;5073857;28;20040;-81
2022/02/25 09:20:45;;;;;;;19.90;3.35;;;6.50;99.90;;;;;;5068840;28;20044;-80
2022/02/25 09:23:11;;;;;;;13.48;2.83;;;6.60;99.90;;;;;;5084969;28;20044;-82
2022/02/25 09:25:37;;;;;;;16.48;3.08;;;6.60;99.90;;;;;;5102285;27;20066;-80
2022/02/25 09:28:03;;;;;;;16.90;3.40;;;6.60;99.90;;;;;;5097143;28;20044;-80
2022/02/25 09:30:29;;;;;;;16.17;2.75;;;6.60;99.90;;;;;;5062818;28;20058;-80
2022/02/25 09:32:57;;;;;;;13.70;3.67;;;6.50;99.90;;;;;;5082046;28;20132;-79
2022/02/25 09:35:26;;;;;;;13.27;2.72;;;6.50;99.90;;;;;;5093529;28;20047;-81
2022/02/25 09:37:53;;;;;;;10.82;3.05;;;6.50;99.90;;;;;;5071752;28;20047;-80
2022/02/25 09:40:20;;;;;;;11.93;3.20;;;6.40;99.90;;;;;;5078097;28;20043;-82
2022/02/25 09:42:47;;;;;;;12.68;3.40;;;6.50;99.90;;;;;;5105922;28;20040;-83
2022/02/25 09:45:15;;;;;;;18.10;3.38;;;6.50;99.90;;;;;;5082699;28;20043;-81
2022/02/25 09:47:42;;;;;;;20.52;4.57;;;6.50;99.90;;;;;;5075591;28;20051;-80
2022/02/25 09:50:19;;;;;;;17.35;3.00;;;6.50;99.90;;;;;;5079563;28;20132;-82
2022/02/25 09:52:46;;;;;;;16.17;3.50;;;6.50;99.90;;;;;;5096732;28;20047;-81
2022/02/25 09:55:25;;;;;;;21.15;3.88;;;6.40;99.90;;;;;;5075505;28;20043;-81
2022/02/25 09:57:52;;;;;;;17.83;3.77;;;6.40;99.90;;;;;;5085720;28;20048;-80
2022/02/25 10:00:18;;;;;;;17.17;3.63;;;6.50;99.90;;;;;;5081001;28;20093;-80
2022/02/25 10:02:46;;;;;;;22.23;3.85;;;6.40;99.90;;;;;;5062645;28;20036;-80
2022/02/25 10:05:16;;;;;;;18.38;3.35;;;6.50;99.90;;;;;;5079996;28;20050;-81
2022/02/25 10:07:45;;;;;;;19.92;3.50;;;6.50;99.90;;;;;;5098118;28;20093;-82
2022/02/25 10:10:13;;;;;;;20.13;4.15;;;6.60;99.90;;;;;;5108248;27;20051;-81
2022/02/25 10:12:55;;;;;;;18.88;4.20;;;6.70;99.90;;;;;;5117718;27;20044;-82
2022/02/25 10:15:35;;;;;;;17.23;3.40;;;6.80;99.90;;;;;;5103269;28;20048;-82
2022/02/25 10:18:14;;;;;;;20.83;3.50;;;7.00;99.90;;;;;;5080754;28;20135;-81
2022/02/25 10:20:42;;;;;;;15.43;3.22;;;7.00;99.90;;;;;;5084240;28;20070;-82
2022/02/25 10:23:33;;;;;;;180.60;26.80;;;7.00;99.90;;;;;;5072497;28;20111;-81
2022/02/25 10:26:11;;;;;;;18.15;3.38;;;7.00;99.90;;;;;;5133269;27;20145;-82
2022/02/25 10:28:58;;;;;;;23.08;4.47;;;7.00;99.90;;;;;;5092144;28;20048;-82
2022/02/25 10:31:33;;;;;;;21.63;3.78;;;7.00;99.90;;;;;;5080220;28;20533;-81
2022/02/25 10:34:12;;;;;;;20.23;4.03;;;7.10;99.90;;;;;;5074348;28;20075;-80
2022/02/25 10:36:53;;;;;;;75.32;10.63;;;7.10;99.90;;;;;;5083212;28;20097;-81
2022/02/25 10:39:24;;;;;;;19.08;3.63;;;7.10;99.90;;;;;;5125657;27;20048;-81
2022/02/25 10:42:06;;;;;;;23.35;3.22;;;7.20;99.90;;;;;;5080456;28;20044;-82
2022/02/25 10:44:53;;;;;;;16.58;4.07;;;7.20;99.90;;;;;;5094023;28;20085;-83
2022/02/25 10:47:25;;;;;;;11.88;2.75;;;7.40;99.90;;;;;;5075830;28;20043;-78
2022/02/25 10:49:59;;;;;;;18.30;3.67;;;7.50;99.90;;;;;;5094343;28;20048;-81
2022/02/25 10:52:29;;;;;;;15.82;3.10;;;7.60;99.90;;;;;;5075274;28;20052;-79
2022/02/25 10:54:56;;;;;;;21.27;3.25;;;7.70;99.90;;;;;;5072423;28;20063;-78
2022/02/25 10:57:25;;;;;;;17.50;3.20;;;7.80;99.90;;;;;;5059884;28;20052;-81
2022/02/25 10:59:51;;;;;;;17.42;3.47;;;7.70;99.90;;;;;;5073764;28;20028;-81
2022/02/25 11:02:30;;;;;;;17.65;4.35;;;7.50;99.90;;;;;;5095299;27;20047;-81
2022/02/25 11:05:23;;;;;;;18.52;4.40;;;7.40;99.90;;;;;;5066567;28;20047;-81
2022/02/25 11:07:51;;;;;;;20.92;3.95;;;7.20;99.90;;;;;;5079472;28;20047;-76
2022/02/25 11:10:26;;;;;;;14.57;2.72;;;7.00;99.90;;;;;;5062458;28;20052;-78
2022/02/25 11:12:53;;;;;;;16.15;2.83;;;6.50;99.90;;;;;;5074992;28;20044;-75
2022/02/25 11:15:25;;;;;;;12.88;3.03;;;6.00;99.90;;;;;;5092624;28;20407;-78
2022/02/25 11:17:52;;;;;;;12.93;3.22;;;5.70;99.90;;;;;;5064417;28;20048;-78
2022/02/25 11:20:25;;;;;;;10.98;1.92;;;5.60;99.90;;;;;;5063281;28;20052;-79
2022/02/25 11:23:04;;;;;;;12.97;2.00;;;5.40;99.90;;;;;;5075860;28;21207;-80
2022/02/25 11:25:32;;;;;;;11.63;2.10;;;5.20;99.90;;;;;;5110448;27;20177;-80
2022/02/25 11:28:02;;;;;;;10.27;2.03;;;5.10;99.90;;;;;;5050088;28;20105;-78
2022/02/25 11:30:36;;;;;;;9.93;1.80;;;5.10;99.90;;;;;;5122308;27;20390;-79
2022/02/25 11:33:04;;;;;;;12.17;2.00;;;4.90;99.90;;;;;;5111744;27;20044;-79
2022/02/25 11:35:33;;;;;;;12.73;2.03;;;5.00;99.90;;;;;;5062706;28;20040;-79
2022/02/25 11:38:07;;;;;;;15.03;2.03;;;5.00;99.90;;;;;;5057145;28;20043;-79
2022/02/25 11:40:46;;;;;;;12.27;1.83;;;4.90;99.90;;;;;;5061376;28;20924;-78
2022/02/25 11:43:12;;;;;;;11.07;1.90;;;5.00;99.90;;;;;;5070221;28;20518;-79
2022/02/25 11:45:52;;;;;;;8.40;1.77;;;4.90;99.90;;;;;;5074097;28;20040;-79
2022/02/25 11:48:25;;;;;;;77.47;12.20;;;5.00;99.90;;;;;;5060514;28;20047;-80
2022/02/25 11:50:56;;;;;;;11.60;1.80;;;5.00;99.90;;;;;;5104880;28;20040;-80
2022/02/25 11:53:26;;;;;;;14.17;2.13;;;5.00;99.90;;;;;;5070102;28;20074;-80
2022/02/25 11:55:53;;;;;;;13.02;2.10;;;5.00;99.90;;;;;;5102770;28;20071;-80
2022/02/25 11:58:50;;;;;;;8.98;1.95;;;5.20;99.90;;;;;;5087012;28;20041;-80
2022/02/25 12:01:23;;;;;;;32.33;4.77;;;5.40;99.90;;;;;;5054099;28;20143;-80
2022/02/25 12:04:05;;;;;;;9.75;1.80;;;5.60;99.90;;;;;;5105186;28;20517;-79
2022/02/25 12:07:00;;;;;;;8.30;1.55;;;5.80;99.90;;;;;;5103170;28;20092;-80
2022/02/25 12:09:56;;;;;;;6.72;1.17;;;5.90;99.90;;;;;;5102435;28;20495;-80
2022/02/25 12:12:28;;;;;;;8.63;1.45;;;6.10;99.90;;;;;;5047963;28;20044;-81
2022/02/25 12:15:19;;;;;;;17.00;2.03;;;6.20;99.90;;;;;;5071517;28;20055;-79
2022/02/25 12:17:50;;;;;;;6.55;1.23;;;6.30;99.90;;;;;;5122667;27;20059;-80
2022/02/25 12:20:26;;;;;;;10.02;1.52;;;6.40;99.90;;;;;;5088332;28;20087;-81
2022/02/25 12:23:02;;;;;;;74.97;10.75;;;6.50;99.90;;;;;;5121531;27;20079;-81
2022/02/25 12:25:42;;;;;;;7.97;1.42;;;6.60;99.90;;;;;;5087543;28;20059;-81
2022/02/25 12:28:11;;;;;;;16.95;2.33;;;6.80;99.90;;;;;;5071411;28;20063;-79
2022/02/25 12:30:45;;;;;;;6.95;1.60;;;6.80;99.90;;;;;;5089398;28;20064;-81
2022/02/25 12:33:30;;;;;;;15.57;2.88;;;6.90;99.90;;;;;;5070951;28;20126;-80
2022/02/25 12:35:57;;;;;;;8.93;1.45;;;7.10;99.90;;;;;;5087451;28;20569;-81
2022/02/25 12:38:29;;;;;;;9.27;1.67;;;7.20;99.90;;;;;;5055039;28;20059;-81
2022/02/25 12:41:11;;;;;;;8.45;1.73;;;7.30;99.90;;;;;;5069476;28;20036;-82
2022/02/25 12:43:50;;;;;;;102.68;13.60;;;7.50;99.90;;;;;;5070326;28;20089;-80
2022/02/25 12:46:18;;;;;;;20.13;3.67;;;7.60;99.90;;;;;;5068618;28;20490;-81
2022/02/25 12:48:45;;;;;;;14.73;2.28;;;7.60;99.90;;;;;;5103418;28;20135;-80
2022/02/25 12:51:11;;;;;;;8.63;1.30;;;7.70;99.90;;;;;;5105052;27;20048;-80
2022/02/25 12:54:00;;;;;;;11.82;1.42;;;7.60;99.90;;;;;;5054955;28;20040;-77
2022/02/25 12:56:28;;;;;;;7.07;1.35;;;7.60;99.90;;;;;;5067746;28;20101;-79
2022/02/25 12:59:05;;;;;;;10.98;1.92;;;7.60;99.90;;;;;;5101778;28;20056;-82